Time;durP1;ratioP1;P1;durP2;ratioP2;P2;SDS_P1;SDS_P2;PMS_P1;PMS_P2;Temp;Humidity;BMP_temperature;BMP_pressure;BME280_temperature;BME280_humidity;BME280_pressure;Samples;Min_cycle;Max_cycle;Signal;HPM_P1;HPM_P2
2022/07/25 00:02:25;;;;;;;12.37;11.27;;;25.30;99.90;;;;;;4987859;28;20193;-68
2022/07/25 00:04:51;;;;;;;13.37;12.07;;;25.20;99.90;;;;;;4988203;28;20406;-68
2022/07/25 00:07:17;;;;;;;12.97;11.73;;;25.20;99.90;;;;;;4988385;28;20408;-69
2022/07/25 00:09:43;;;;;;;12.97;11.43;;;25.20;99.90;;;;;;4988497;28;20243;-68
2022/07/25 00:12:08;;;;;;;14.00;12.40;;;25.10;99.90;;;;;;4988795;28;20208;-68
2022/07/25 00:14:34;;;;;;;13.30;12.10;;;25.10;99.90;;;;;;4988781;28;20211;-68
2022/07/25 00:17:00;;;;;;;13.20;12.00;;;25.00;99.90;;;;;;4988307;28;20171;-69
2022/07/25 00:19:26;;;;;;;12.30;11.30;;;25.00;99.90;;;;;;4986960;28;20197;-69
2022/07/25 00:21:51;;;;;;;12.60;11.50;;;25.00;99.90;;;;;;4989161;28;20177;-67
2022/07/25 00:24:17;;;;;;;12.77;11.47;;;24.90;99.90;;;;;;4988358;28;20835;-69
2022/07/25 00:26:43;;;;;;;18.60;12.10;;;24.90;99.90;;;;;;4988746;28;20539;-68
2022/07/25 00:29:08;;;;;;;14.00;10.97;;;24.80;99.90;;;;;;4987922;28;20214;-69
2022/07/25 00:31:34;;;;;;;12.23;11.13;;;24.80;99.90;;;;;;4988599;28;20169;-68
2022/07/25 00:34:00;;;;;;;11.83;10.73;;;24.70;99.90;;;;;;4987248;28;20279;-69
2022/07/25 00:36:26;;;;;;;11.83;10.90;;;24.70;99.90;;;;;;4988707;28;20665;-68
2022/07/25 00:38:52;;;;;;;12.50;11.40;;;24.70;99.90;;;;;;4987543;28;20424;-68
2022/07/25 00:41:17;;;;;;;12.10;10.80;;;24.70;99.90;;;;;;4988530;28;20168;-70
2022/07/25 00:43:45;;;;;;;13.20;10.67;;;24.80;99.90;;;;;;4988063;28;20202;-68
2022/07/25 00:46:14;;;;;;;13.37;12.00;;;24.80;99.90;;;;;;4988592;28;20253;-68
2022/07/25 00:48:40;;;;;;;20.23;12.00;;;24.80;99.90;;;;;;4985881;28;20455;-68
2022/07/25 00:51:07;;;;;;;12.40;11.00;;;24.80;99.90;;;;;;4988463;28;20430;-68
2022/07/25 00:53:33;;;;;;;13.90;12.63;;;24.70;99.90;;;;;;4987844;28;20184;-69
2022/07/25 00:55:59;;;;;;;11.67;10.67;;;24.70;99.90;;;;;;4988847;28;20415;-68
2022/07/25 00:58:25;;;;;;;13.67;12.13;;;24.60;99.90;;;;;;4987383;28;20404;-68
2022/07/25 01:00:51;;;;;;;11.67;10.57;;;24.60;99.90;;;;;;4987736;28;20256;-68
2022/07/25 01:03:17;;;;;;;13.73;10.57;;;24.60;99.90;;;;;;4990341;28;20168;-68
2022/07/25 01:05:43;;;;;;;12.63;11.50;;;24.50;99.90;;;;;;4991774;28;20176;-68
2022/07/25 01:08:09;;;;;;;12.53;11.40;;;24.50;99.90;;;;;;4990870;28;20896;-68
2022/07/25 01:10:35;;;;;;;14.50;11.90;;;24.50;99.90;;;;;;4992035;28;20204;-68
2022/07/25 01:13:01;;;;;;;15.50;12.70;;;24.50;99.90;;;;;;4991670;28;20427;-69
2022/07/25 01:15:27;;;;;;;12.17;11.10;;;24.50;99.90;;;;;;4996135;28;20828;-69
2022/07/25 01:17:53;;;;;;;13.50;12.40;;;24.50;99.90;;;;;;4989608;28;20176;-69
2022/07/25 01:20:21;;;;;;;13.10;11.90;;;24.40;99.90;;;;;;4990719;28;20424;-69
2022/07/25 01:22:47;;;;;;;12.63;11.30;;;24.40;99.90;;;;;;4990877;28;20175;-67
2022/07/25 01:25:14;;;;;;;17.03;12.67;;;24.40;99.90;;;;;;4991261;28;20419;-68
2022/07/25 01:27:41;;;;;;;16.73;11.57;;;24.40;99.90;;;;;;4990314;28;20970;-69
2022/07/25 01:30:09;;;;;;;12.93;11.53;;;24.40;99.90;;;;;;4990266;28;20427;-67
2022/07/25 01:32:35;;;;;;;13.23;10.33;;;24.40;99.90;;;;;;4989994;28;20443;-69
2022/07/25 01:35:02;;;;;;;12.73;11.47;;;24.40;99.90;;;;;;4990605;28;20443;-69
2022/07/25 01:37:28;;;;;;;11.80;10.80;;;24.40;99.90;;;;;;4990360;28;20936;-69
2022/07/25 01:39:54;;;;;;;12.50;11.33;;;24.20;99.90;;;;;;4990911;28;20427;-68
2022/07/25 01:42:20;;;;;;;12.03;10.83;;;24.10;99.90;;;;;;4991028;28;20228;-68
2022/07/25 01:44:45;;;;;;;12.90;11.80;;;24.00;99.90;;;;;;4990634;28;20172;-69
2022/07/25 01:47:11;;;;;;;12.53;11.47;;;24.10;99.90;;;;;;4989938;28;20181;-68
2022/07/25 01:49:37;;;;;;;13.13;12.03;;;24.00;99.90;;;;;;4989264;28;20271;-67
2022/07/25 01:52:03;;;;;;;13.73;12.20;;;24.00;99.90;;;;;;4990270;28;20223;-69
2022/07/25 01:54:28;;;;;;;13.20;11.90;;;24.00;99.90;;;;;;4990128;28;20258;-68
2022/07/25 01:56:54;;;;;;;14.17;12.60;;;23.90;99.90;;;;;;4990051;28;20456;-66
2022/07/25 01:59:20;;;;;;;12.87;11.53;;;24.00;99.90;;;;;;4989316;28;20192;-69
2022/07/25 02:01:45;;;;;;;12.40;11.30;;;24.00;99.90;;;;;;4990226;28;20177;-69
2022/07/25 02:04:11;;;;;;;15.10;11.73;;;24.10;99.90;;;;;;4989135;28;20260;-68
2022/07/25 02:06:40;;;;;;;16.20;13.00;;;24.10;99.90;;;;;;4990349;28;20626;-68
2022/07/25 02:09:06;;;;;;;12.23;11.00;;;24.10;99.90;;;;;;4989512;28;20204;-67
2022/07/25 02:11:33;;;;;;;16.57;11.17;;;24.00;99.90;;;;;;4990691;28;20816;-68
2022/07/25 02:13:58;;;;;;;13.37;12.00;;;24.10;99.90;;;;;;4989976;28;20486;-68
2022/07/25 02:16:24;;;;;;;13.73;12.13;;;24.00;99.90;;;;;;4990700;28;20415;-69
2022/07/25 02:18:50;;;;;;;13.17;11.60;;;24.00;99.90;;;;;;4988607;28;20189;-69
2022/07/25 02:21:16;;;;;;;15.80;11.97;;;23.90;99.90;;;;;;4990083;28;20623;-68
2022/07/25 02:23:43;;;;;;;13.27;12.00;;;23.90;99.90;;;;;;4990292;28;20176;-69
2022/07/25 02:26:10;;;;;;;13.97;12.77;;;23.80;99.90;;;;;;4990472;28;20280;-68
2022/07/25 02:28:36;;;;;;;13.30;12.07;;;23.80;99.90;;;;;;4989028;28;21129;-68
2022/07/25 02:31:01;;;;;;;12.90;11.90;;;23.80;99.90;;;;;;4990548;28;20412;-69
2022/07/25 02:33:27;;;;;;;15.80;12.57;;;23.70;99.90;;;;;;4988772;28;20275;-68
2022/07/25 02:35:53;;;;;;;13.40;11.90;;;23.70;99.90;;;;;;4990102;28;20176;-69
2022/07/25 02:38:19;;;;;;;16.33;12.27;;;23.60;99.90;;;;;;4989114;28;20180;-69
2022/07/25 02:40:49;;;;;;;13.97;12.40;;;23.60;99.90;;;;;;4990200;28;20177;-67
2022/07/25 02:43:16;;;;;;;13.37;12.27;;;23.60;99.90;;;;;;4989366;28;20594;-68
2022/07/25 02:45:42;;;;;;;14.03;12.83;;;23.70;99.90;;;;;;4990004;28;20424;-68
2022/07/25 02:48:08;;;;;;;19.50;12.63;;;23.70;99.90;;;;;;4987710;28;20443;-69
2022/07/25 02:50:34;;;;;;;15.10;12.70;;;23.70;99.90;;;;;;4989479;28;20529;-68
2022/07/25 02:53:00;;;;;;;15.10;12.83;;;23.70;99.90;;;;;;4988714;28;20420;-69
2022/07/25 02:55:26;;;;;;;13.90;12.70;;;23.70;99.90;;;;;;4989771;28;20440;-69
2022/07/25 02:57:51;;;;;;;16.70;12.60;;;23.70;99.90;;;;;;4988375;28;20243;-69
2022/07/25 03:00:18;;;;;;;23.67;13.70;;;23.80;99.90;;;;;;4989470;28;20522;-69
2022/07/25 03:02:44;;;;;;;13.50;12.10;;;23.80;99.90;;;;;;4987875;28;20204;-68
2022/07/25 03:05:12;;;;;;;14.23;12.70;;;23.70;99.90;;;;;;4989485;28;20444;-69
2022/07/25 03:07:38;;;;;;;14.33;11.67;;;23.60;99.90;;;;;;4988807;28;20514;-68
2022/07/25 03:10:05;;;;;;;15.40;13.60;;;23.50;99.90;;;;;;4988990;28;21011;-69
2022/07/25 03:12:32;;;;;;;25.30;14.93;;;23.50;99.90;;;;;;4988545;28;20181;-68
2022/07/25 03:14:58;;;;;;;28.77;12.80;;;23.50;99.90;;;;;;4989148;28;20444;-69
2022/07/25 03:17:24;;;;;;;17.83;13.37;;;23.50;99.90;;;;;;4987847;28;20907;-69
2022/07/25 03:19:50;;;;;;;25.47;13.40;;;23.50;99.90;;;;;;4988177;28;20455;-69
2022/07/25 03:22:16;;;;;;;33.57;13.70;;;23.60;99.90;;;;;;4989077;28;20819;-70
2022/07/25 03:24:42;;;;;;;29.57;13.77;;;23.50;99.90;;;;;;4988568;28;20235;-68
2022/07/25 03:27:08;;;;;;;38.40;14.90;;;23.50;99.90;;;;;;4988245;28;20180;-67
2022/07/25 03:29:34;;;;;;;52.40;15.63;;;23.50;99.90;;;;;;4988301;28;20188;-68
2022/07/25 03:32:00;;;;;;;20.13;14.57;;;23.60;99.90;;;;;;4988672;28;20759;-67
2022/07/25 03:34:26;;;;;;;26.57;14.00;;;23.50;99.90;;;;;;4987493;28;20459;-68
2022/07/25 03:36:52;;;;;;;24.37;13.30;;;23.50;99.90;;;;;;4988602;28;20223;-69
2022/07/25 03:39:19;;;;;;;16.57;12.80;;;23.40;99.90;;;;;;4988074;28;20689;-70
2022/07/25 03:41:45;;;;;;;26.20;14.00;;;23.40;99.90;;;;;;4988848;28;20200;-70
2022/07/25 03:44:11;;;;;;;14.97;12.93;;;23.30;99.90;;;;;;4988721;28;20474;-67
2022/07/25 03:46:37;;;;;;;20.90;14.43;;;23.30;99.90;;;;;;4989074;28;20404;-68
2022/07/25 03:49:03;;;;;;;17.73;12.57;;;23.20;99.90;;;;;;4987101;28;20728;-69
2022/07/25 03:51:29;;;;;;;36.03;16.77;;;23.20;99.90;;;;;;4989362;28;20615;-68
2022/07/25 03:54:01;;;;;;;22.20;13.10;;;23.20;99.90;;;;;;4988301;28;20633;-68
2022/07/25 03:56:38;;;;;;;17.87;12.80;;;23.10;99.90;;;;;;4988745;28;20176;-69
2022/07/25 03:59:05;;;;;;;25.70;14.20;;;23.10;99.90;;;;;;4987703;28;20929;-69
2022/07/25 04:01:31;;;;;;;20.93;13.17;;;23.30;99.90;;;;;;4989040;28;20415;-69
2022/07/25 04:03:56;;;;;;;15.80;13.40;;;23.10;99.90;;;;;;4987466;28;20864;-69
2022/07/25 04:06:22;;;;;;;30.23;13.90;;;23.00;99.90;;;;;;4988948;28;20434;-70
2022/07/25 04:08:49;;;;;;;16.50;12.90;;;23.20;99.90;;;;;;4987412;28;20196;-68
2022/07/25 04:11:15;;;;;;;15.77;13.90;;;23.40;99.90;;;;;;4988667;28;20194;-70
2022/07/25 04:13:41;;;;;;;19.50;14.47;;;23.50;99.90;;;;;;4988171;28;20423;-67
2022/07/25 04:16:07;;;;;;;23.30;12.27;;;23.50;99.90;;;;;;4988913;28;20408;-68
2022/07/25 04:18:33;;;;;;;25.30;14.20;;;23.60;99.90;;;;;;4986035;28;20201;-69
2022/07/25 04:20:58;;;;;;;24.73;13.73;;;23.60;99.90;;;;;;4988773;28;20720;-69
2022/07/25 04:23:24;;;;;;;22.00;13.30;;;23.60;99.90;;;;;;4988034;28;20180;-69
2022/07/25 04:25:50;;;;;;;20.97;14.10;;;23.60;99.90;;;;;;4979286;28;20524;-69
2022/07/25 04:28:16;;;;;;;27.43;14.63;;;23.60;99.90;;;;;;4985856;28;20646;-70
2022/07/25 04:30:44;;;;;;;17.83;13.30;;;23.60;99.90;;;;;;4987698;28;20621;-68
2022/07/25 04:33:10;;;;;;;29.67;15.43;;;23.60;99.90;;;;;;4993597;28;20235;-68
2022/07/25 04:35:36;;;;;;;46.57;16.20;;;23.60;99.90;;;;;;4988399;28;20456;-68
2022/07/25 04:38:02;;;;;;;43.93;15.67;;;23.90;99.90;;;;;;4990281;28;20420;-69
2022/07/25 04:40:28;;;;;;;49.43;15.80;;;24.20;99.90;;;;;;4990230;28;20692;-68
2022/07/25 04:42:53;;;;;;;30.63;13.83;;;24.60;99.90;;;;;;4991188;28;20411;-69
2022/07/25 04:45:19;;;;;;;33.47;15.23;;;24.90;99.90;;;;;;4992217;28;20173;-69
2022/07/25 04:47:46;;;;;;;49.87;18.17;;;25.00;99.90;;;;;;4990762;28;20178;-70
2022/07/25 04:50:12;;;;;;;23.50;15.50;;;25.30;99.90;;;;;;4991096;28;20200;-69
2022/07/25 04:52:38;;;;;;;33.97;14.80;;;25.40;99.90;;;;;;4991765;28;20423;-68
2022/07/25 04:55:04;;;;;;;37.67;16.07;;;25.50;99.90;;;;;;4991834;28;20458;-70
2022/07/25 04:57:30;;;;;;;21.77;14.83;;;25.40;99.90;;;;;;4991691;28;20204;-68
2022/07/25 04:59:57;;;;;;;16.87;14.30;;;25.50;99.90;;;;;;4991952;28;20477;-69
2022/07/25 05:02:23;;;;;;;44.43;18.73;;;25.50;99.90;;;;;;4991660;28;20255;-68
2022/07/25 05:04:49;;;;;;;46.27;16.60;;;25.20;99.90;;;;;;4992088;28;20434;-67
2022/07/25 05:07:15;;;;;;;35.07;16.60;;;25.10;99.90;;;;;;4992705;28;20408;-69
2022/07/25 05:09:41;;;;;;;54.63;19.77;;;25.00;99.90;;;;;;4992138;28;20641;-69
2022/07/25 05:12:07;;;;;;;41.83;19.37;;;24.80;99.90;;;;;;4992287;28;20328;-69
2022/07/25 05:14:33;;;;;;;45.37;18.33;;;24.80;99.90;;;;;;4991753;28;20288;-69
2022/07/25 05:16:59;;;;;;;48.43;18.67;;;24.90;99.90;;;;;;4991575;28;21269;-69
2022/07/25 05:19:24;;;;;;;65.83;20.57;;;25.10;99.90;;;;;;4986280;28;20333;-69
2022/07/25 05:21:51;;;;;;;35.73;17.30;;;25.20;99.90;;;;;;4989729;28;20807;-68
2022/07/25 05:24:16;;;;;;;21.77;16.70;;;25.10;99.90;;;;;;4979065;28;20169;-69
2022/07/25 05:26:42;;;;;;;39.10;16.77;;;25.10;99.90;;;;;;4981502;28;20770;-68
2022/07/25 05:29:09;;;;;;;40.80;18.70;;;25.20;99.90;;;;;;4986602;28;20207;-68
2022/07/25 05:31:35;;;;;;;26.77;15.27;;;25.30;99.90;;;;;;4989486;28;20168;-68
2022/07/25 05:34:01;;;;;;;24.43;13.97;;;25.60;99.90;;;;;;4987847;28;20556;-68
2022/07/25 05:36:27;;;;;;;82.53;21.37;;;25.80;99.90;;;;;;4989023;28;20400;-68
2022/07/25 05:38:53;;;;;;;21.60;14.50;;;26.10;99.90;;;;;;4987498;28;20442;-68
2022/07/25 05:41:19;;;;;;;38.63;14.63;;;26.00;99.90;;;;;;4988028;28;20169;-68
2022/07/25 05:43:47;;;;;;;17.90;14.97;;;26.10;99.90;;;;;;4988853;28;20244;-68
2022/07/25 05:46:14;;;;;;;24.83;14.67;;;26.30;99.90;;;;;;4988876;28;20408;-68
2022/07/25 05:48:40;;;;;;;18.27;15.93;;;26.30;99.90;;;;;;4985975;28;20431;-68
2022/07/25 05:51:06;;;;;;;34.20;17.17;;;26.50;99.90;;;;;;4988699;28;20554;-68
2022/07/25 05:53:32;;;;;;;41.73;18.33;;;26.40;99.90;;;;;;4988522;28;20518;-67
2022/07/25 05:55:57;;;;;;;45.67;18.60;;;26.30;99.90;;;;;;4992173;28;20193;-66
2022/07/25 05:58:23;;;;;;;24.83;15.57;;;26.50;99.90;;;;;;4989123;28;20176;-67
2022/07/25 06:00:50;;;;;;;18.67;16.57;;;26.70;99.90;;;;;;4988651;28;20870;-67
2022/07/25 06:03:19;;;;;;;24.73;17.60;;;26.70;99.90;;;;;;4987565;28;20177;-67
2022/07/25 06:05:45;;;;;;;23.47;16.73;;;27.00;99.90;;;;;;4989152;28;20466;-67
2022/07/25 06:08:15;;;;;;;57.97;17.90;;;27.20;99.90;;;;;;4987687;28;20411;-67
2022/07/25 06:10:41;;;;;;;59.93;18.97;;;27.10;99.90;;;;;;4988084;28;20769;-68
2022/07/25 06:13:08;;;;;;;31.53;17.70;;;27.30;99.90;;;;;;4987752;28;20843;-68
2022/07/25 06:15:34;;;;;;;86.90;21.67;;;27.50;99.90;;;;;;4984337;28;20482;-67
2022/07/25 06:17:59;;;;;;;59.13;19.60;;;27.10;99.90;;;;;;4981179;28;20440;-68
2022/07/25 06:20:25;;;;;;;48.87;19.10;;;27.40;99.90;;;;;;4987695;28;20470;-68
2022/07/25 06:22:51;;;;;;;48.90;19.73;;;27.60;99.90;;;;;;4982044;28;20190;-69
2022/07/25 06:25:17;;;;;;;46.33;19.40;;;27.60;99.90;;;;;;4987864;28;20169;-68
2022/07/25 06:27:43;;;;;;;39.90;18.37;;;27.70;99.90;;;;;;4987835;28;20511;-68
2022/07/25 06:30:11;;;;;;;26.80;17.57;;;27.70;99.90;;;;;;4990754;28;20334;-68
2022/07/25 06:32:37;;;;;;;26.37;19.53;;;28.00;99.90;;;;;;4989826;28;20200;-67
2022/07/25 06:35:03;;;;;;;74.20;22.77;;;28.00;99.90;;;;;;4990717;28;20485;-68
2022/07/25 06:37:29;;;;;;;20.07;18.07;;;28.10;99.90;;;;;;4991033;28;20176;-68
2022/07/25 06:39:54;;;;;;;31.47;19.13;;;28.00;99.90;;;;;;4989813;28;20185;-68
2022/07/25 06:42:20;;;;;;;41.50;19.60;;;28.00;99.90;;;;;;4990317;28;20172;-68
2022/07/25 06:44:46;;;;;;;25.90;18.60;;;28.20;99.90;;;;;;4990051;28;20233;-68
2022/07/25 06:47:12;;;;;;;26.80;18.40;;;28.20;99.90;;;;;;4989349;28;20219;-67
2022/07/25 06:49:38;;;;;;;32.73;20.60;;;28.40;99.90;;;;;;4988518;28;20712;-68
2022/07/25 06:52:05;;;;;;;22.70;19.70;;;28.30;99.90;;;;;;4989346;28;20179;-67
2022/07/25 06:54:30;;;;;;;39.67;19.20;;;28.20;99.90;;;;;;4988699;28;20467;-67
2022/07/25 06:56:56;;;;;;;63.13;23.00;;;28.30;99.90;;;;;;4989585;28;20462;-68
2022/07/25 06:59:22;;;;;;;69.27;21.90;;;28.60;99.90;;;;;;4988139;28;20201;-66
2022/07/25 07:01:47;;;;;;;27.40;19.00;;;28.80;99.90;;;;;;4989314;28;20721;-68
2022/07/25 07:04:13;;;;;;;43.87;19.93;;;28.60;99.90;;;;;;4988646;28;20636;-68
2022/07/25 07:06:39;;;;;;;20.60;18.67;;;28.90;99.90;;;;;;4989307;28;20305;-68
2022/07/25 07:09:05;;;;;;;21.00;19.20;;;28.80;99.90;;;;;;4988412;28;20610;-68
2022/07/25 07:11:30;;;;;;;36.33;18.50;;;28.50;99.90;;;;;;4989768;28;20587;-68
2022/07/25 07:13:56;;;;;;;31.97;18.77;;;28.80;99.90;;;;;;4989291;28;20192;-67
2022/07/25 07:16:22;;;;;;;18.67;16.90;;;29.10;99.90;;;;;;4989933;28;20195;-69
2022/07/25 07:18:48;;;;;;;33.33;19.20;;;29.10;99.90;;;;;;4988010;28;20188;-68
2022/07/25 07:21:13;;;;;;;36.27;17.23;;;28.70;99.90;;;;;;4989697;28;20168;-67
2022/07/25 07:23:39;;;;;;;55.03;21.07;;;28.90;99.90;;;;;;4989027;28;20727;-67
2022/07/25 07:26:05;;;;;;;28.40;18.17;;;28.90;99.90;;;;;;4989809;28;20187;-68
2022/07/25 07:28:30;;;;;;;20.10;18.20;;;29.00;99.90;;;;;;4988507;28;20168;-67
2022/07/25 07:30:56;;;;;;;19.97;17.77;;;29.20;99.90;;;;;;4989600;28;20342;-67
2022/07/25 07:33:22;;;;;;;33.60;18.10;;;29.10;99.90;;;;;;4988582;28;20191;-68
2022/07/25 07:35:48;;;;;;;25.83;18.03;;;29.40;99.90;;;;;;4989446;28;20259;-67
2022/07/25 07:38:17;;;;;;;62.00;21.07;;;29.70;99.90;;;;;;4988212;28;20173;-67
2022/07/25 07:40:43;;;;;;;43.47;17.77;;;29.90;99.90;;;;;;4989011;28;20207;-67
2022/07/25 07:43:09;;;;;;;47.23;19.20;;;30.10;99.10;;;;;;4988735;28;20463;-68
2022/07/25 07:45:35;;;;;;;44.20;17.10;;;30.30;98.20;;;;;;4989560;28;20191;-66
2022/07/25 07:48:01;;;;;;;61.63;18.70;;;30.00;96.50;;;;;;4987949;28;20812;-65
2022/07/25 07:50:27;;;;;;;36.13;17.50;;;29.80;95.40;;;;;;4989004;28;20192;-67
2022/07/25 07:52:55;;;;;;;26.40;17.10;;;30.10;95.50;;;;;;4986791;28;20180;-68
2022/07/25 07:58:06;;;;;;;24.60;15.20;;;30.10;93.40;;;;;;4989147;28;20455;-68
2022/07/25 08:00:34;;;;;;;15.60;14.20;;;30.40;92.60;;;;;;4989732;28;20486;-68
2022/07/25 08:03:01;;;;;;;28.33;15.67;;;30.30;91.90;;;;;;4987412;28;20461;-67
2022/07/25 08:05:33;;;;;;;41.60;15.47;;;30.50;91.00;;;;;;4988912;28;20407;-66
2022/07/25 08:08:00;;;;;;;47.03;17.43;;;30.40;90.10;;;;;;4988229;28;20419;-67
2022/07/25 08:10:30;;;;;;;40.37;16.87;;;30.50;88.50;;;;;;4989561;28;20443;-66
2022/07/25 08:12:58;;;;;;;20.37;15.87;;;30.50;87.80;;;;;;4992707;28;20470;-67
2022/07/25 08:15:24;;;;;;;20.80;14.93;;;30.60;85.40;;;;;;4992993;28;20561;-67
2022/07/25 08:17:50;;;;;;;26.47;14.93;;;30.80;84.80;;;;;;4990737;28;20518;-67
2022/07/25 08:20:19;;;;;;;22.30;15.30;;;30.80;96.10;;;;;;4992398;28;20497;-67
2022/07/25 08:22:47;;;;;;;39.00;16.67;;;31.00;83.00;;;;;;4991820;28;20437;-66
2022/07/25 08:25:19;;;;;;;26.97;14.40;;;31.00;82.10;;;;;;4992808;28;20487;-67
2022/07/25 08:27:45;;;;;;;20.47;14.57;;;30.90;81.30;;;;;;4992010;28;20870;-66
2022/07/25 08:30:11;;;;;;;34.13;15.93;;;30.90;81.10;;;;;;4992045;28;20470;-66
2022/07/25 08:32:58;;;;;;;19.03;13.90;;;31.00;80.90;;;;;;4991026;28;20172;-67
2022/07/25 08:35:25;;;;;;;26.50;15.73;;;31.30;80.80;;;;;;4992176;28;20490;-67
2022/07/25 08:37:52;;;;;;;26.47;15.20;;;31.30;79.80;;;;;;4991570;28;20598;-66
2022/07/25 08:40:20;;;;;;;21.40;15.50;;;31.40;79.20;;;;;;4991911;28;20431;-66
2022/07/25 08:42:46;;;;;;;35.90;16.00;;;31.40;76.80;;;;;;4990627;28;20470;-66
2022/07/25 08:45:15;;;;;;;26.87;14.67;;;31.40;76.10;;;;;;4991157;28;20435;-66
2022/07/25 08:47:40;;;;;;;26.07;15.37;;;31.40;75.10;;;;;;4986909;28;20173;-66
2022/07/25 08:50:10;;;;;;;19.43;14.70;;;31.60;75.60;;;;;;4990358;28;20748;-66
2022/07/25 08:52:36;;;;;;;21.10;14.37;;;31.80;75.40;;;;;;4989962;28;20180;-66
2022/07/25 08:55:07;;;;;;;15.17;13.40;;;31.80;74.80;;;;;;4990699;28;21131;-66
2022/07/25 08:57:35;;;;;;;16.07;14.47;;;31.80;76.00;;;;;;4990421;28;20518;-65
2022/07/25 09:00:03;;;;;;;45.87;16.83;;;31.70;74.80;;;;;;4988171;28;20250;-65
2022/07/25 09:02:29;;;;;;;23.30;16.07;;;31.90;76.50;;;;;;4983030;28;20784;-66
2022/07/25 09:04:57;;;;;;;30.73;15.37;;;31.70;73.70;;;;;;4990394;28;20180;-65
2022/07/25 09:07:40;;;;;;;29.33;15.80;;;31.70;75.10;;;;;;4990197;28;20176;-66
2022/07/25 09:10:23;;;;;;;26.77;16.23;;;31.90;73.70;;;;;;4988590;28;20197;-66
2022/07/25 09:12:54;;;;;;;18.00;15.63;;;32.10;73.70;;;;;;4988478;28;20796;-65
2022/07/25 09:15:34;;;;;;;15.57;13.50;;;32.10;71.80;;;;;;4988008;28;20592;-65
2022/07/25 09:18:02;;;;;;;23.00;13.30;;;32.20;90.20;;;;;;4986274;28;20167;-66
2022/07/25 09:20:44;;;;;;;46.47;17.30;;;32.10;71.90;;;;;;4988712;28;20180;-66
2022/07/25 09:23:25;;;;;;;15.47;13.90;;;32.20;71.10;;;;;;4989182;28;20184;-67
2022/07/25 09:25:51;;;;;;;16.50;14.70;;;32.50;70.30;;;;;;4989792;28;20658;-66
2022/07/25 09:28:18;;;;;;;19.23;14.10;;;32.50;68.70;;;;;;4989304;28;20263;-66
2022/07/25 09:30:59;;;;;;;15.73;13.93;;;32.60;67.60;;;;;;4989961;28;20208;-65
2022/07/25 09:33:26;;;;;;;34.63;14.60;;;32.70;64.70;;;;;;4988669;28;20776;-65
2022/07/25 09:35:53;;;;;;;17.20;14.73;;;32.80;61.40;;;;;;4989832;28;20287;-66
2022/07/25 09:38:21;;;;;;;17.93;14.23;;;32.80;60.60;;;;;;4988619;28;20169;-66
2022/07/25 09:41:02;;;;;;;15.60;14.03;;;32.80;59.80;;;;;;4991039;28;20646;-66
2022/07/25 09:43:36;;;;;;;18.80;13.53;;;32.80;59.20;;;;;;4990179;28;20180;-66
2022/07/25 09:46:01;;;;;;;16.37;14.20;;;32.70;58.30;;;;;;4990967;28;20184;-65
2022/07/25 09:48:27;;;;;;;14.80;13.50;;;32.70;57.70;;;;;;4988600;28;20190;-66
2022/07/25 09:50:54;;;;;;;19.63;14.77;;;32.80;57.40;;;;;;4990666;28;20223;-66
2022/07/25 09:53:20;;;;;;;24.87;14.40;;;32.90;56.60;;;;;;4990310;28;20624;-65
2022/07/25 09:55:45;;;;;;;13.53;12.00;;;33.10;54.60;;;;;;4990651;28;20219;-66
2022/07/25 09:58:15;;;;;;;14.83;13.30;;;33.20;52.30;;;;;;4989907;28;20696;-66
2022/07/25 10:00:42;;;;;;;20.43;13.07;;;33.00;49.90;;;;;;4990717;28;20200;-66
2022/07/25 10:03:27;;;;;;;25.67;13.10;;;32.90;49.50;;;;;;4989166;28;20536;-66
2022/07/25 10:06:03;;;;;;;26.90;13.50;;;32.90;48.90;;;;;;4990680;28;20199;-65
2022/07/25 10:08:35;;;;;;;14.00;12.20;;;32.90;47.30;;;;;;4989345;28;20254;-66
2022/07/25 10:11:00;;;;;;;14.70;12.07;;;33.00;44.10;;;;;;4990478;28;20204;-66
2022/07/25 10:13:33;;;;;;;12.20;11.03;;;32.90;42.20;;;;;;5010363;23;20272;-67
2022/07/25 10:16:00;;;;;;;19.53;11.43;;;33.00;40.90;;;;;;4989944;28;20196;-67
2022/07/25 10:18:29;;;;;;;14.37;11.90;;;32.90;38.80;;;;;;4988136;28;20617;-66
2022/07/25 10:21:08;;;;;;;22.53;11.90;;;33.00;37.30;;;;;;4989993;28;20549;-67
2022/07/25 10:23:34;;;;;;;13.37;11.93;;;33.00;36.40;;;;;;4989749;28;20192;-67
2022/07/25 10:26:06;;;;;;;15.63;12.00;;;33.00;34.80;;;;;;4988430;28;20184;-68
2022/07/25 10:28:53;;;;;;;12.00;10.70;;;33.00;33.90;;;;;;4988898;28;20168;-67
2022/07/25 10:31:30;;;;;;;12.93;11.80;;;33.10;32.20;;;;;;4990251;28;20160;-67
2022/07/25 10:33:58;;;;;;;15.37;11.03;;;33.10;31.80;;;;;;4987605;28;20176;-68
2022/07/25 10:36:30;;;;;;;15.93;12.10;;;33.20;29.60;;;;;;4990239;28;20180;-67
2022/07/25 10:38:58;;;;;;;17.50;11.73;;;33.00;28.10;;;;;;4989293;28;20212;-67
2022/07/25 10:41:25;;;;;;;29.20;11.80;;;33.10;28.40;;;;;;4990050;28;20550;-66
2022/07/25 10:43:51;;;;;;;26.53;11.07;;;33.20;26.70;;;;;;4989404;28;20193;-67
2022/07/25 10:46:19;;;;;;;14.00;10.80;;;33.30;26.30;;;;;;4990205;28;20172;-67
2022/07/25 10:48:57;;;;;;;20.23;11.80;;;33.00;36.20;;;;;;4987119;28;20173;-67
2022/07/25 10:51:27;;;;;;;30.40;13.07;;;33.20;24.90;;;;;;4989277;28;20168;-67
2022/07/25 10:53:53;;;;;;;28.40;13.77;;;33.20;23.90;;;;;;4987737;28;20172;-66
2022/07/25 10:56:24;;;;;;;14.97;11.33;;;33.20;23.50;;;;;;4989386;28;21579;-67
2022/07/25 10:58:52;;;;;;;16.37;11.90;;;33.30;23.10;;;;;;4988204;28;20192;-68
2022/07/25 11:01:22;;;;;;;22.20;12.50;;;33.40;23.40;;;;;;4989067;28;20255;-68
2022/07/25 11:03:49;;;;;;;15.50;11.63;;;33.50;22.20;;;;;;4987610;28;20299;-67
2022/07/25 11:06:16;;;;;;;18.27;11.13;;;33.60;21.60;;;;;;4989252;28;20218;-68
2022/07/25 11:08:43;;;;;;;11.97;10.53;;;33.40;20.70;;;;;;4988318;28;20192;-67
2022/07/25 11:11:09;;;;;;;28.90;12.00;;;33.40;19.30;;;;;;4989409;28;20198;-67
2022/07/25 11:13:40;;;;;;;16.47;10.70;;;33.20;19.10;;;;;;4988262;28;20617;-67
2022/07/25 11:16:06;;;;;;;12.00;10.87;;;33.20;19.10;;;;;;4989110;28;20290;-67
2022/07/25 11:18:33;;;;;;;18.67;11.90;;;33.30;18.50;;;;;;4986434;28;20176;-68
2022/07/25 11:21:00;;;;;;;11.07;9.97;;;33.20;17.60;;;;;;4989498;28;20179;-68
2022/07/25 11:23:27;;;;;;;12.90;11.83;;;33.20;17.20;;;;;;5003955;28;20228;-68
2022/07/25 11:26:03;;;;;;;13.30;12.00;;;33.30;17.10;;;;;;5009781;28;20172;-68
2022/07/25 11:28:45;;;;;;;21.83;11.47;;;33.40;16.60;;;;;;5007807;28;20159;-68
2022/07/25 11:31:13;;;;;;;12.63;11.33;;;33.40;16.40;;;;;;5007138;28;20176;-68
2022/07/25 11:33:40;;;;;;;16.80;10.73;;;33.30;15.70;;;;;;4988156;28;20204;-69
2022/07/25 11:36:07;;;;;;;14.93;10.57;;;33.20;15.30;;;;;;4988882;28;20192;-67
2022/07/25 11:38:34;;;;;;;13.43;10.93;;;33.20;15.50;;;;;;4987366;28;20164;-68
2022/07/25 11:41:00;;;;;;;14.07;12.00;;;33.10;15.00;;;;;;4988600;28;20660;-67
2022/07/25 11:43:26;;;;;;;20.00;11.07;;;33.10;14.70;;;;;;4988288;28;20196;-68
2022/07/25 11:46:10;;;;;;;25.73;12.43;;;33.20;14.90;;;;;;4988034;28;20227;-68
2022/07/25 11:48:39;;;;;;;12.17;11.00;;;33.30;14.90;;;;;;4986183;28;20656;-68
2022/07/25 11:51:17;;;;;;;27.13;11.90;;;33.30;14.20;;;;;;4988766;28;20279;-69
2022/07/25 11:53:46;;;;;;;19.70;11.43;;;33.30;14.00;;;;;;4987450;28;20191;-67
2022/07/25 11:56:15;;;;;;;12.73;10.50;;;33.30;13.60;;;;;;4989186;28;20678;-69
2022/07/25 11:58:42;;;;;;;10.63;9.70;;;33.20;12.60;;;;;;4987307;28;20248;-66
2022/07/25 12:01:12;;;;;;;16.13;11.10;;;33.30;12.20;;;;;;4988832;28;20239;-66
2022/07/25 12:03:38;;;;;;;11.70;10.73;;;33.20;12.10;;;;;;4986200;28;20262;-67
2022/07/25 12:06:09;;;;;;;15.47;11.23;;;33.30;12.10;;;;;;4987671;28;20208;-68
2022/07/25 12:08:41;;;;;;;15.40;11.43;;;33.40;12.00;;;;;;4987551;28;20161;-68
2022/07/25 12:11:17;;;;;;;12.90;10.83;;;33.30;12.70;;;;;;4988873;28;20256;-66
2022/07/25 12:13:43;;;;;;;12.60;10.67;;;33.20;11.60;;;;;;4987993;28;20230;-66
2022/07/25 12:16:08;;;;;;;32.80;12.00;;;33.20;11.60;;;;;;4988986;28;20589;-70
2022/07/25 12:18:37;;;;;;;11.77;10.80;;;33.20;12.00;;;;;;4986088;28;20185;-68
2022/07/25 12:21:03;;;;;;;26.50;11.17;;;33.40;11.80;;;;;;4988830;28;20287;-65
2022/07/25 12:23:29;;;;;;;18.80;10.80;;;33.40;11.00;;;;;;5002158;28;20574;-68
2022/07/25 12:25:54;;;;;;;19.73;11.03;;;33.40;10.80;;;;;;5007891;28;20200;-68
2022/07/25 12:28:20;;;;;;;16.57;10.57;;;33.30;9.80;;;;;;5007954;28;20187;-68
2022/07/25 12:30:47;;;;;;;12.40;11.20;;;33.50;19.40;;;;;;5009089;28;20172;-67
2022/07/25 12:33:13;;;;;;;25.17;12.80;;;33.50;8.70;;;;;;4988455;28;20795;-67